createdAt,value
2024-02-28T00:00:43.638Z,97055.28
2024-02-28T00:03:14.014Z,97050.16
2024-02-28T00:05:47.153Z,97050.97
2024-02-28T00:08:18.368Z,97056.28
2024-02-28T00:10:48.775Z,97043.19
2024-02-28T00:13:21.565Z,97045.69
2024-02-28T00:15:51.732Z,97053.78
2024-02-28T00:18:21.822Z,97048.50
2024-02-28T00:20:55.625Z,97052.13
2024-02-28T00:23:25.627Z,97051.28
2024-02-28T00:25:55.706Z,97056.56
2024-02-28T00:28:25.829Z,97055.88
2024-02-28T00:30:56.095Z,97056.88
2024-02-28T00:33:26.136Z,97066.63
2024-02-28T00:35:58.735Z,97062.16
2024-02-28T00:38:29.238Z,97068.41
2024-02-28T00:40:59.247Z,97067.44
2024-02-28T00:43:29.302Z,97070.22
2024-02-28T00:45:59.740Z,97070.22
2024-02-28T00:48:30.610Z,97068.56
2024-02-28T00:51:03.343Z,97063.28
2024-02-28T00:53:33.570Z,97068.56
2024-02-28T00:56:03.672Z,97071.22
2024-02-28T00:58:33.774Z,97067.75
2024-02-28T01:01:03.840Z,97066.06
2024-02-28T01:03:33.998Z,97074.84
2024-02-28T01:06:07.540Z,97078.63
2024-02-28T01:08:37.460Z,97068.06
2024-02-28T01:11:07.940Z,97074.19
2024-02-28T01:13:37.972Z,97076.00
2024-02-28T01:16:08.471Z,97077.81
2024-02-28T01:18:38.521Z,97080.59
2024-02-28T01:21:11.202Z,97086.72
2024-02-28T01:23:41.297Z,97087.56
2024-02-28T01:26:11.338Z,97085.88
2024-02-28T01:28:41.404Z,97089.38
2024-02-28T01:31:11.424Z,97095.63
2024-02-28T01:33:41.695Z,97099.41
2024-02-28T01:36:16.077Z,97104.84
2024-02-28T01:38:46.159Z,97108.16
2024-02-28T01:41:16.321Z,97117.75
2024-02-28T01:43:46.437Z,97117.91
2024-02-28T01:46:26.441Z,97118.06
2024-02-28T01:48:58.522Z,97133.09
2024-02-28T01:51:31.839Z,97137.69
2024-02-28T01:54:03.109Z,97143.66
2024-02-28T01:56:34.637Z,97150.75
2024-02-28T01:59:06.196Z,97153.41
2024-02-28T02:01:36.224Z,97154.22
2024-02-28T02:04:07.407Z,97160.50
2024-02-28T02:06:43.191Z,97160.50
2024-02-28T02:09:13.355Z,97159.66
2024-02-28T02:11:43.593Z,97168.56
2024-02-28T02:14:14.660Z,97163.28
2024-02-28T02:16:44.728Z,97162.47
2024-02-28T02:19:15.232Z,97167.75
2024-02-28T02:21:54.002Z,97173.19
2024-02-28T02:24:26.770Z,97166.06
2024-02-28T02:26:59.792Z,97176.66
2024-02-28T02:29:30.129Z,97176.66
2024-02-28T02:32:00.164Z,97175.13
2024-02-28T02:34:30.238Z,97177.09
2024-02-28T02:37:00.381Z,97188.22
2024-02-28T02:39:33.591Z,97181.25
2024-02-28T02:42:03.655Z,97184.88
2024-02-28T02:44:33.832Z,97176.94
2024-02-28T02:47:03.828Z,97179.59
2024-02-28T02:49:33.816Z,97178.75
2024-02-28T02:52:03.841Z,97179.72
2024-02-28T02:54:37.728Z,97183.34
2024-02-28T02:57:08.631Z,97171.94
2024-02-28T02:59:40.133Z,97175.41
2024-02-28T03:02:10.450Z,97174.59
2024-02-28T03:04:40.466Z,97177.38
2024-02-28T03:07:10.834Z,97184.31
2024-02-28T03:09:43.762Z,97186.97
2024-02-28T03:12:14.062Z,97186.13
2024-02-28T03:14:44.098Z,97186.97
2024-02-28T03:17:14.078Z,97191.41
2024-02-28T03:19:44.208Z,97189.75
2024-02-28T03:22:14.282Z,97191.56
2024-02-28T03:24:47.400Z,97181.97
2024-02-28T03:27:17.512Z,97191.72
2024-02-28T03:29:48.188Z,97189.91
2024-02-28T03:32:18.159Z,97194.22
2024-02-28T03:34:48.398Z,97189.22
2024-02-28T03:37:18.388Z,97190.19
2024-02-28T03:39:51.413Z,97189.75
2024-02-28T03:42:22.655Z,97190.72
2024-02-28T03:44:52.699Z,97191.84
2024-02-28T03:47:22.721Z,97201.59
2024-02-28T03:49:52.783Z,97204.22
2024-02-28T03:52:22.916Z,97213.84
2024-02-28T03:54:55.604Z,97208.69
2024-02-28T03:57:26.172Z,97205.22
2024-02-28T03:59:56.266Z,97210.63
2024-02-28T04:02:26.434Z,97204.53
2024-02-28T04:04:56.526Z,97210.63
2024-02-28T04:07:26.496Z,97209.81
2024-02-28T04:09:59.408Z,97199.38
2024-02-28T04:12:29.413Z,97203.69
2024-02-28T04:14:59.703Z,97216.06
2024-02-28T04:17:30.165Z,97207.31
2024-02-28T04:20:03.571Z,97207.44
2024-02-28T04:22:33.644Z,97221.50
2024-02-28T04:25:06.498Z,97213.72
2024-02-28T04:27:36.660Z,97208.41
2024-02-28T04:30:08.381Z,97230.41
2024-02-28T04:32:39.641Z,97233.19
2024-02-28T04:35:10.618Z,97232.22
2024-02-28T04:37:40.612Z,97237.78
2024-02-28T04:40:15.100Z,97235.28
2024-02-28T04:42:45.543Z,97235.13
2024-02-28T04:45:15.640Z,97244.03
2024-02-28T04:47:45.748Z,97240.56
2024-02-28T04:50:16.383Z,97243.34
2024-02-28T04:52:46.495Z,97247.66
2024-02-28T04:55:19.500Z,97244.19
2024-02-28T04:57:49.575Z,97253.06
2024-02-28T05:00:20.503Z,97251.28
2024-02-28T05:02:50.527Z,97256.56
2024-02-28T05:05:20.578Z,97259.47
2024-02-28T05:07:50.655Z,97262.13
2024-02-28T05:10:23.285Z,97268.53
2024-02-28T05:12:53.453Z,97271.84
2024-02-28T05:15:24.267Z,97278.81
2024-02-28T05:17:55.360Z,97277.13
2024-02-28T05:20:25.574Z,97282.44
2024-02-28T05:22:58.800Z,97288.81
2024-02-28T05:25:31.476Z,97295.78
2024-02-28T05:28:01.557Z,97297.44
2024-02-28T05:30:31.925Z,97298.41
2024-02-28T05:33:02.298Z,97297.72
2024-02-28T05:35:32.998Z,97306.34
2024-02-28T05:38:03.985Z,97309.13
2024-02-28T05:40:36.591Z,97321.50
2024-02-28T05:43:06.944Z,97318.03
2024-02-28T05:45:36.970Z,97318.16
2024-02-28T05:48:07.290Z,97320.81
2024-02-28T05:50:37.287Z,97325.25
2024-02-28T05:53:07.701Z,97334.16
2024-02-28T05:55:40.726Z,97338.47
2024-02-28T05:58:10.853Z,97341.13
2024-02-28T06:00:40.900Z,97346.53
2024-02-28T06:03:11.148Z,97351.69
2024-02-28T06:05:43.486Z,97364.06
2024-02-28T06:08:14.029Z,97371.16
2024-02-28T06:10:48.296Z,97373.94
2024-02-28T06:13:19.444Z,97382.69
2024-02-28T06:15:50.202Z,97383.81
2024-02-28T06:18:20.372Z,97388.13
2024-02-28T06:20:50.403Z,97396.03
2024-02-28T06:23:27.917Z,97407.44
2024-02-28T06:26:02.446Z,97409.38
2024-02-28T06:28:33.619Z,97412.88
2024-02-28T06:31:03.673Z,97421.50
2024-02-28T06:33:33.716Z,97417.03
2024-02-28T06:36:03.716Z,97417.19
2024-02-28T06:38:33.820Z,97426.78
2024-02-28T06:41:06.813Z,97435.69
2024-02-28T06:43:39.067Z,97437.34
2024-02-28T06:46:11.035Z,97440.97
2024-02-28T06:48:41.110Z,97445.41
2024-02-28T06:51:11.164Z,97449.03
2024-02-28T06:53:41.987Z,97448.19
2024-02-28T06:56:14.626Z,97450.69
2024-02-28T06:58:44.738Z,97449.84
2024-02-28T07:01:14.737Z,97449.84
2024-02-28T07:03:44.854Z,97446.25
2024-02-28T07:06:15.587Z,97440.97
2024-02-28T07:08:45.658Z,97458.50
2024-02-28T07:11:20.515Z,97458.34
2024-02-28T07:13:50.504Z,97459.31
2024-02-28T07:16:20.606Z,97459.19
2024-02-28T07:18:50.657Z,97460.03
2024-02-28T07:21:20.914Z,97451.25
2024-02-28T07:23:51.058Z,97456.53
2024-02-28T07:26:27.554Z,97457.38
2024-02-28T07:28:58.048Z,97449.31
2024-02-28T07:31:28.512Z,97454.75
2024-02-28T07:33:58.527Z,97453.91
2024-02-28T07:36:28.579Z,97455.56
2024-02-28T07:38:58.609Z,97443.19
2024-02-28T07:41:31.997Z,97452.81
2024-02-28T07:44:02.422Z,97451.84
2024-02-28T07:46:32.452Z,97448.34
2024-02-28T07:49:03.086Z,97460.72
2024-02-28T07:51:33.541Z,97454.75
2024-02-28T07:54:03.842Z,97461.56
2024-02-28T07:56:36.454Z,97467.69
2024-02-28T07:59:06.520Z,97462.41
2024-02-28T08:01:37.841Z,97468.53
2024-02-28T08:04:08.120Z,97472.13
2024-02-28T08:06:38.224Z,97472.13
2024-02-28T08:09:11.673Z,97468.53
2024-02-28T08:11:45.948Z,97470.19
2024-02-28T08:14:15.996Z,97476.19
2024-02-28T08:16:46.067Z,97472.56
2024-02-28T08:19:16.288Z,97474.38
2024-02-28T08:21:46.428Z,97469.94
2024-02-28T08:24:17.061Z,97469.94
2024-02-28T08:26:49.663Z,97478.56
2024-02-28T08:29:19.748Z,97480.22
2024-02-28T08:31:49.774Z,97475.91
2024-02-28T08:34:22.195Z,97470.63
2024-02-28T08:36:53.393Z,97481.19
2024-02-28T08:39:24.744Z,97491.06
2024-02-28T08:41:57.663Z,97491.06
2024-02-28T08:44:27.712Z,97489.25
2024-02-28T08:46:57.915Z,97493.56
2024-02-28T08:49:27.946Z,97492.59
2024-02-28T08:51:58.513Z,97496.09
2024-02-28T08:54:29.462Z,97499.69
2024-02-28T08:57:04.272Z,97506.66
2024-02-28T08:59:34.703Z,97500.41
2024-02-28T09:02:04.903Z,97496.91
2024-02-28T09:04:34.916Z,97510.00
2024-02-28T09:07:05.253Z,97512.66
2024-02-28T09:09:39.488Z,97513.34
2024-02-28T09:12:12.836Z,97514.03
2024-02-28T09:14:43.020Z,97510.69
2024-02-28T09:17:13.090Z,97507.09
2024-02-28T09:19:43.134Z,97525.31
2024-02-28T09:22:13.160Z,97522.69
2024-02-28T09:24:40.746Z,97530.59
2024-02-28T09:27:14.118Z,97527.41
2024-02-28T09:29:44.115Z,97526.44
2024-02-28T09:32:16.013Z,97529.91
2024-02-28T09:34:46.201Z,97529.91
2024-02-28T09:37:18.284Z,97532.56
2024-02-28T09:39:49.130Z,97533.13
2024-02-28T09:42:22.696Z,97526.03
2024-02-28T09:44:52.853Z,97528.66
2024-02-28T09:47:22.977Z,97527.84
2024-02-28T09:49:55.824Z,97539.25
2024-02-28T09:52:25.902Z,97534.66
2024-02-28T09:54:56.034Z,97534.53
2024-02-28T09:57:31.852Z,97538.72
2024-02-28T10:00:05.600Z,97538.84
2024-02-28T10:02:37.669Z,97537.03
2024-02-28T10:05:09.303Z,97541.63
2024-02-28T10:07:39.720Z,97541.63
2024-02-28T10:10:12.135Z,97545.81
2024-02-28T10:12:48.082Z,97546.78
2024-02-28T10:15:18.380Z,97556.38
2024-02-28T10:17:48.916Z,97556.25
2024-02-28T10:20:19.199Z,97550.94
2024-02-28T10:22:49.312Z,97550.69
2024-02-28T10:25:21.466Z,97548.19
2024-02-28T10:27:54.203Z,97559.59
2024-02-28T10:30:24.302Z,97553.34
2024-02-28T10:32:54.470Z,97559.59
2024-02-28T10:35:26.619Z,97566.41
2024-02-28T10:37:57.474Z,97559.31
2024-02-28T10:40:27.781Z,97569.75
2024-02-28T10:43:02.031Z,97572.69
2024-02-28T10:45:49.104Z,97571.69
2024-02-28T10:48:25.610Z,97578.81
2024-02-28T10:50:56.526Z,97577.81
2024-02-28T10:53:36.755Z,97583.94
2024-02-28T10:56:09.316Z,97583.25
2024-02-28T10:58:54.478Z,97587.56
2024-02-28T11:01:25.065Z,97590.34
2024-02-28T11:03:56.175Z,97598.00
2024-02-28T11:06:26.953Z,97591.88
2024-02-28T11:08:58.091Z,97594.41
2024-02-28T11:11:28.265Z,97592.72
2024-02-28T11:14:02.575Z,97582.84
2024-02-28T11:16:33.922Z,97589.81
2024-02-28T11:19:05.751Z,97581.88
2024-02-28T11:21:39.374Z,97593.16
2024-02-28T11:24:10.588Z,97594.13
2024-02-28T11:26:40.662Z,97605.41
2024-02-28T11:29:14.388Z,97600.97
2024-02-28T11:31:44.487Z,97602.75
2024-02-28T11:34:14.725Z,97595.81
2024-02-28T11:36:45.354Z,97604.44
2024-02-28T11:39:17.269Z,97602.75
2024-02-28T11:41:50.343Z,97597.34
2024-02-28T11:44:24.044Z,97602.75
2024-02-28T11:46:54.164Z,97597.47
2024-02-28T11:49:24.246Z,97602.75
2024-02-28T11:51:54.363Z,97601.94
2024-02-28T11:54:24.472Z,97596.50
2024-02-28T11:56:57.437Z,97606.94
2024-02-28T11:59:30.314Z,97603.34
2024-02-28T12:02:00.309Z,97603.47
2024-02-28T12:04:30.333Z,97606.13
2024-02-28T12:07:01.537Z,97601.78
2024-02-28T12:09:38.265Z,97607.66
2024-02-28T12:12:12.521Z,97605.00
2024-02-28T12:14:46.012Z,97598.63
2024-02-28T12:17:17.521Z,97601.09
2024-02-28T12:19:47.661Z,97602.91
2024-02-28T12:22:17.843Z,97600.25
2024-02-28T12:24:48.751Z,97597.59
2024-02-28T12:27:18.969Z,97602.91
2024-02-28T12:29:51.635Z,97599.16
2024-02-28T12:32:22.111Z,97596.09
2024-02-28T12:34:52.118Z,97599.19
2024-02-28T12:37:22.491Z,97591.69
2024-02-28T12:39:52.901Z,97592.38
2024-02-28T12:42:23.416Z,97593.34
2024-02-28T12:44:56.082Z,97598.78
2024-02-28T12:47:26.127Z,97596.13
2024-02-28T12:49:56.657Z,97593.63
2024-02-28T12:52:27.528Z,97587.50
2024-02-28T12:54:57.679Z,97595.44
2024-02-28T12:57:27.725Z,97590.97
2024-02-28T13:00:00.437Z,97589.31
2024-02-28T13:02:31.357Z,97581.22
2024-02-28T13:05:01.406Z,97576.06
2024-02-28T13:07:31.715Z,97590.13
2024-02-28T13:10:02.362Z,97581.38
2024-02-28T13:12:32.415Z,97593.63
2024-02-28T13:15:06.531Z,97584.72
2024-02-28T13:17:36.717Z,97593.47
2024-02-28T13:20:07.385Z,97587.34
2024-02-28T13:22:37.377Z,97588.31
2024-02-28T13:25:08.829Z,97598.06
2024-02-28T13:27:39.128Z,97595.56
2024-02-28T13:30:13.420Z,97600.84
2024-02-28T13:32:44.479Z,97606.13
2024-02-28T13:35:16.197Z,97597.38
2024-02-28T13:37:46.521Z,97595.69
2024-02-28T13:40:16.705Z,97598.22
2024-02-28T13:42:46.847Z,97599.03
2024-02-28T13:45:19.692Z,97592.91
2024-02-28T13:47:49.864Z,97591.94
2024-02-28T13:50:19.963Z,97586.66
2024-02-28T13:52:50.041Z,97596.25
2024-02-28T13:55:20.261Z,97591.94
2024-02-28T13:57:50.825Z,97590.13
2024-02-28T14:00:24.856Z,97593.63
2024-02-28T14:02:55.110Z,97587.50
2024-02-28T14:05:25.356Z,97598.91
2024-02-28T14:07:55.402Z,97584.84
2024-02-28T14:10:25.707Z,97586.66
2024-02-28T14:12:56.773Z,97590.97
2024-02-28T14:15:30.364Z,97594.44
2024-02-28T14:18:00.432Z,97595.28
2024-02-28T14:20:30.483Z,97591.94
2024-02-28T14:23:00.740Z,97593.75
2024-02-28T14:25:32.445Z,97585.69
2024-02-28T14:28:03.326Z,97592.91
2024-02-28T14:30:36.230Z,97592.91
2024-02-28T14:33:08.649Z,97599.03
2024-02-28T14:35:40.577Z,97591.09
2024-02-28T14:38:10.878Z,97601.69
2024-02-28T14:40:41.463Z,97599.88
2024-02-28T14:43:11.661Z,97604.19
2024-02-28T14:45:44.378Z,97609.50
2024-02-28T14:48:14.410Z,97607.81
2024-02-28T14:50:45.876Z,97612.28
2024-02-28T14:53:17.665Z,97615.06
2024-02-28T14:55:48.646Z,97619.63
2024-02-28T14:58:19.640Z,97625.63
2024-02-28T15:00:52.689Z,97625.63
2024-02-28T15:03:22.976Z,97619.50
2024-02-28T15:05:53.487Z,97619.50
2024-02-28T15:08:25.009Z,97611.56
2024-02-28T15:10:55.242Z,97614.34
2024-02-28T15:13:25.737Z,97609.06
2024-02-28T15:15:58.439Z,97619.63
2024-02-28T15:18:28.568Z,97616.16
2024-02-28T15:21:01.346Z,97617.97
2024-02-28T15:23:33.116Z,97617.81
2024-02-28T15:26:31.571Z,97612.66
2024-02-28T15:29:09.383Z,97611.00
2024-02-28T15:31:42.456Z,97610.28
2024-02-28T15:34:13.443Z,97614.63
2024-02-28T15:36:43.663Z,97612.81
2024-02-28T15:39:13.767Z,97615.44
2024-02-28T15:41:44.000Z,97617.25
2024-02-28T15:44:15.125Z,97614.63
2024-02-28T15:46:47.753Z,97611.97
2024-02-28T15:49:24.738Z,97606.69
2024-02-28T15:51:59.342Z,97614.63
2024-02-28T15:54:29.818Z,97612.81
2024-02-28T15:57:00.728Z,97618.94
2024-02-28T15:59:31.754Z,97609.31
2024-02-28T16:02:05.146Z,97622.56
2024-02-28T16:04:36.088Z,97622.56
2024-02-28T16:07:06.481Z,97617.25
2024-02-28T16:09:37.898Z,97606.81
2024-02-28T16:12:09.724Z,97614.75
2024-02-28T16:14:40.065Z,97614.63
2024-02-28T16:17:17.233Z,97620.03
2024-02-28T16:19:47.609Z,97607.66
2024-02-28T16:22:19.184Z,97616.56
2024-02-28T16:24:49.361Z,97619.19
2024-02-28T16:27:19.529Z,97623.53
2024-02-28T16:29:49.622Z,97617.41
2024-02-28T16:32:22.480Z,97623.53
2024-02-28T16:34:52.550Z,97614.75
2024-02-28T16:37:22.674Z,97624.50
2024-02-28T16:39:52.752Z,97624.50
2024-02-28T16:42:26.026Z,97628.94
2024-02-28T16:44:56.115Z,97630.75
2024-02-28T16:47:29.851Z,97630.63
2024-02-28T16:49:59.924Z,97630.75
2024-02-28T16:52:30.100Z,97635.91
2024-02-28T16:55:00.703Z,97644.81
2024-02-28T16:57:31.049Z,97632.56
2024-02-28T17:00:01.126Z,97643.97
2024-02-28T17:02:33.729Z,97643.84
2024-02-28T17:05:04.033Z,97641.19
2024-02-28T17:07:34.428Z,97653.59
2024-02-28T17:10:04.631Z,97654.56
2024-02-28T17:12:34.985Z,97650.94
2024-02-28T17:15:05.029Z,97658.75
2024-02-28T17:17:38.336Z,97657.91
2024-02-28T17:20:10.477Z,97668.63
2024-02-28T17:22:40.657Z,97670.16
2024-02-28T17:25:14.588Z,97673.78
2024-02-28T17:27:45.174Z,97676.56
2024-02-28T17:30:15.421Z,97683.38
2024-02-28T17:32:50.087Z,97689.66
2024-02-28T17:35:20.664Z,97686.03
2024-02-28T17:37:50.856Z,97679.06
2024-02-28T17:40:21.124Z,97684.22
2024-02-28T17:42:51.175Z,97683.50
2024-02-28T17:45:21.777Z,97685.31
2024-02-28T17:47:54.651Z,97681.00
2024-02-28T17:50:26.000Z,97687.97
2024-02-28T17:52:56.250Z,97687.97
2024-02-28T17:55:28.484Z,97693.25
2024-02-28T17:57:58.590Z,97688.81
2024-02-28T18:00:30.125Z,97695.06
2024-02-28T18:03:06.056Z,97690.47
2024-02-28T18:05:38.021Z,97695.78
2024-02-28T18:08:08.948Z,97687.00
2024-02-28T18:10:39.409Z,97698.56
2024-02-28T18:13:11.870Z,97686.28
2024-02-28T18:15:44.550Z,97689.78
2024-02-28T18:18:20.348Z,97687.97
2024-02-28T18:20:50.828Z,97687.97
2024-02-28T18:23:27.908Z,97687.13
2024-02-28T18:26:04.729Z,97687.13
2024-02-28T18:28:38.196Z,97677.38
2024-02-28T18:31:09.059Z,97682.69
2024-02-28T18:33:41.751Z,97688.09
2024-02-28T18:36:12.347Z,97692.41
2024-02-28T18:38:42.452Z,97690.75
2024-02-28T18:41:12.814Z,97691.59
2024-02-28T18:43:43.797Z,97696.03
2024-02-28T18:46:19.842Z,97688.94
2024-02-28T18:48:52.656Z,97675.72
2024-02-28T18:51:25.763Z,97675.72
2024-02-28T18:53:56.246Z,97670.44
2024-02-28T18:56:26.299Z,97661.78
2024-02-28T18:58:56.489Z,97667.78
2024-02-28T19:01:33.109Z,97669.44
2024-02-28T19:04:05.903Z,97671.25
2024-02-28T19:06:36.030Z,97669.59
2024-02-28T19:09:06.046Z,97674.88
2024-02-28T19:11:36.128Z,97673.06
2024-02-28T19:14:06.560Z,97675.84
2024-02-28T19:16:36.616Z,97676.69
2024-02-28T19:19:09.393Z,97683.78
2024-02-28T19:21:42.562Z,97675.00
2024-02-28T19:24:12.811Z,97675.00
2024-02-28T19:26:44.061Z,97676.81
2024-02-28T19:29:14.210Z,97669.72
2024-02-28T19:31:44.231Z,97677.66
2024-02-28T19:34:17.625Z,97674.88
2024-02-28T19:36:47.828Z,97678.50
2024-02-28T19:39:17.907Z,97681.28
2024-02-28T19:41:47.936Z,97678.50
2024-02-28T19:44:18.283Z,97679.34
2024-02-28T19:46:48.519Z,97677.66
2024-02-28T19:49:21.276Z,97677.53
2024-02-28T19:51:51.310Z,97672.38
2024-02-28T19:54:21.455Z,97672.38
2024-02-28T19:56:53.322Z,97662.75
2024-02-28T19:59:23.456Z,97672.38
2024-02-28T20:01:53.573Z,97669.72
2024-02-28T20:04:26.896Z,97677.66
2024-02-28T20:06:56.918Z,97675.16
2024-02-28T20:09:26.966Z,97676.94
2024-02-28T20:11:57.340Z,97676.81
2024-02-28T20:14:27.464Z,97676.94
2024-02-28T20:16:57.656Z,97678.63
2024-02-28T20:19:30.517Z,97674.31
2024-02-28T20:22:00.872Z,97660.41
2024-02-28T20:24:31.051Z,97667.38
2024-02-28T20:27:01.445Z,97662.22
2024-02-28T20:29:31.467Z,97662.09
2024-02-28T20:32:01.587Z,97662.09
2024-02-28T20:34:36.803Z,97667.38
2024-02-28T20:37:11.065Z,97670.16
2024-02-28T20:39:41.154Z,97673.63
2024-02-28T20:42:11.152Z,97671.00
2024-02-28T20:44:41.222Z,97665.81
2024-02-28T20:47:11.404Z,97661.38
2024-02-28T20:49:44.248Z,97661.38
2024-02-28T20:52:14.847Z,97661.25
2024-02-28T20:54:44.959Z,97657.06
2024-02-28T20:57:17.227Z,97662.34
2024-02-28T20:59:47.732Z,97655.38
2024-02-28T21:02:18.200Z,97655.66
2024-02-28T21:04:50.942Z,97654.56
2024-02-28T21:07:18.536Z,97659.00
2024-02-28T21:09:49.013Z,97661.78
2024-02-28T21:12:25.901Z,97660.94
2024-02-28T21:14:57.206Z,97657.31
2024-02-28T21:17:27.213Z,97655.66
2024-02-28T21:20:00.394Z,97650.22
2024-02-28T21:22:30.763Z,97641.59
2024-02-28T21:25:00.834Z,97644.94
2024-02-28T21:27:31.528Z,97649.53
2024-02-28T21:30:01.676Z,97653.00
2024-02-28T21:32:31.906Z,97653.00
2024-02-28T21:35:05.880Z,97638.25
2024-02-28T21:37:36.141Z,97645.19
2024-02-28T21:40:06.333Z,97650.50
2024-02-28T21:42:36.538Z,97646.19
2024-02-28T21:45:07.480Z,97659.41
2024-02-28T21:47:37.649Z,97655.78
2024-02-28T21:50:11.507Z,97652.31
2024-02-28T21:52:41.639Z,97652.31
2024-02-28T21:55:12.926Z,97641.72
2024-02-28T21:57:42.936Z,97638.09
2024-02-28T22:00:15.095Z,97640.06
2024-02-28T22:02:45.187Z,97630.31
2024-02-28T22:05:18.775Z,97637.28
2024-02-28T22:07:48.754Z,97625.03
2024-02-28T22:10:18.932Z,97633.78
2024-02-28T22:12:49.005Z,97636.44
2024-02-28T22:15:25.464Z,97631.16
2024-02-28T22:17:55.613Z,97623.22
2024-02-28T22:20:28.240Z,97628.38
2024-02-28T22:22:58.310Z,97629.47
2024-02-28T22:25:28.543Z,97630.19
2024-02-28T22:27:59.601Z,97629.22
2024-02-28T22:30:30.378Z,97626.69
2024-02-28T22:33:00.912Z,97624.06
2024-02-28T22:35:33.612Z,97627.53
2024-02-28T22:38:04.020Z,97617.94
2024-02-28T22:40:34.231Z,97626.56
2024-02-28T22:43:04.912Z,97610.84
2024-02-28T22:45:35.001Z,97618.75
2024-02-28T22:48:05.130Z,97619.59
2024-02-28T22:50:38.008Z,97623.09
2024-02-28T22:53:08.280Z,97608.19
2024-02-28T22:55:38.385Z,97606.38
2024-02-28T22:58:08.706Z,97611.66
2024-02-28T23:00:39.023Z,97606.38
2024-02-28T23:03:09.440Z,97610.00
2024-02-28T23:05:42.095Z,97608.19
2024-02-28T23:08:12.875Z,97601.94
2024-02-28T23:10:43.007Z,97599.41
2024-02-28T23:13:13.291Z,97596.63
2024-02-28T23:15:43.489Z,97598.31
2024-02-28T23:18:13.645Z,97599.28
2024-02-28T23:20:47.310Z,97593.84
2024-02-28T23:23:17.414Z,97594.00
2024-02-28T23:25:47.460Z,97593.03
2024-02-28T23:28:17.438Z,97590.50
2024-02-28T23:30:47.790Z,97589.69
2024-02-28T23:33:18.063Z,97593.16
2024-02-28T23:35:53.603Z,97584.38
2024-02-28T23:38:23.853Z,97588.84
2024-02-28T23:40:54.716Z,97586.19
2024-02-28T23:43:24.748Z,97583.56
2024-02-28T23:45:54.777Z,97592.31
2024-02-28T23:48:24.814Z,97582.59
2024-02-28T23:50:57.465Z,97585.22
2024-02-28T23:53:27.556Z,97585.22
2024-02-28T23:55:57.577Z,97586.06
2024-02-28T23:58:27.987Z,97580.78
